createdAt,value
2023-11-15T00:00:01.482Z,77.62
2023-11-15T00:02:30.423Z,77.79
2023-11-15T00:04:58.777Z,77.69
2023-11-15T00:07:26.596Z,77.82
2023-11-15T00:09:54.725Z,78.13
2023-11-15T00:12:23.101Z,77.41
2023-11-15T00:14:52.847Z,78.14
2023-11-15T00:17:21.091Z,77.68
2023-11-15T00:19:50.660Z,77.26
2023-11-15T00:22:18.678Z,77.22
2023-11-15T00:24:46.977Z,78.05
2023-11-15T00:27:14.685Z,77.99
2023-11-15T00:29:42.924Z,78.19
2023-11-15T00:32:11.546Z,78.50
2023-11-15T00:34:39.657Z,78.75
2023-11-15T00:37:07.781Z,78.30
2023-11-15T00:39:35.854Z,78.82
2023-11-15T00:42:04.958Z,79.14
2023-11-15T00:44:33.516Z,78.84
2023-11-15T00:47:01.628Z,78.89
2023-11-15T00:49:30.734Z,79.38
2023-11-15T00:51:58.551Z,79.65
2023-11-15T00:54:26.682Z,79.61
2023-11-15T00:56:57.044Z,79.63
2023-11-15T00:59:37.604Z,79.92
2023-11-15T01:02:06.667Z,79.56
2023-11-15T01:04:36.076Z,79.18
2023-11-15T01:07:04.518Z,79.45
2023-11-15T01:09:35.193Z,79.61
2023-11-15T01:12:05.081Z,79.80
2023-11-15T01:14:33.308Z,80.17
2023-11-15T01:17:01.155Z,80.69
2023-11-15T01:19:30.181Z,80.68
2023-11-15T01:21:58.976Z,80.87
2023-11-15T01:24:28.213Z,81.05
2023-11-15T01:26:56.798Z,81.56
2023-11-15T01:29:24.823Z,81.86
2023-11-15T01:31:52.632Z,81.77
2023-11-15T01:34:20.730Z,81.34
2023-11-15T01:36:49.270Z,81.51
2023-11-15T01:39:17.855Z,82.32
2023-11-15T01:41:49.373Z,82.55
2023-11-15T01:44:18.823Z,83.10
2023-11-15T01:46:51.110Z,83.32
2023-11-15T01:49:21.464Z,83.10
2023-11-15T01:51:53.898Z,83.68
2023-11-15T01:54:23.242Z,83.38
2023-11-15T01:56:51.146Z,83.75
2023-11-15T01:59:19.847Z,83.40
2023-11-15T02:01:48.993Z,83.70
2023-11-15T02:04:17.095Z,82.93
2023-11-15T02:06:44.927Z,82.78
2023-11-15T02:09:13.120Z,82.33
2023-11-15T02:11:41.144Z,82.40
2023-11-15T02:14:10.899Z,82.48
2023-11-15T02:16:39.011Z,82.17
2023-11-15T02:19:09.221Z,82.33
2023-11-15T02:21:37.416Z,81.78
2023-11-15T02:24:06.293Z,81.74
2023-11-15T02:26:33.969Z,81.96
2023-11-15T02:29:01.921Z,81.49
2023-11-15T02:31:29.787Z,80.98
2023-11-15T02:33:57.698Z,80.98
2023-11-15T02:36:25.468Z,80.45
2023-11-15T02:38:54.353Z,80.29
2023-11-15T02:41:22.507Z,80.23
2023-11-15T02:43:50.542Z,80.35
2023-11-15T02:46:24.008Z,80.09
2023-11-15T02:48:52.652Z,80.26
2023-11-15T02:51:20.517Z,79.47
2023-11-15T02:53:49.987Z,80.84
2023-11-15T02:56:17.704Z,80.45
2023-11-15T02:58:45.670Z,80.54
2023-11-15T03:01:14.144Z,80.50
2023-11-15T03:03:42.289Z,80.41
2023-11-15T03:06:10.797Z,80.11
2023-11-15T03:08:38.879Z,79.76
2023-11-15T03:11:07.169Z,80.50
2023-11-15T03:13:35.460Z,79.76
2023-11-15T03:16:03.373Z,79.49
2023-11-15T03:18:31.508Z,79.93
2023-11-15T03:20:59.941Z,79.87
2023-11-15T03:23:27.975Z,79.24
2023-11-15T03:25:55.752Z,79.77
2023-11-15T03:28:23.713Z,80.23
2023-11-15T03:30:51.450Z,79.68
2023-11-15T03:33:20.183Z,80.15
2023-11-15T03:35:48.062Z,80.41
2023-11-15T03:38:16.265Z,80.11
2023-11-15T03:40:44.302Z,79.64
2023-11-15T03:43:12.902Z,79.95
2023-11-15T03:45:40.654Z,79.82
2023-11-15T03:48:10.637Z,79.61
2023-11-15T03:50:38.613Z,79.94
2023-11-15T03:53:06.883Z,79.57
2023-11-15T03:55:34.619Z,80.13
2023-11-15T03:58:03.092Z,79.89
2023-11-15T04:00:30.968Z,80.80
2023-11-15T04:02:59.070Z,80.16
2023-11-15T04:05:29.373Z,80.00
2023-11-15T04:07:57.816Z,80.26
2023-11-15T04:10:25.889Z,80.21
2023-11-15T04:12:55.790Z,80.63
2023-11-15T04:15:23.672Z,80.41
2023-11-15T04:17:51.920Z,80.02
2023-11-15T04:20:19.823Z,80.51
2023-11-15T04:22:47.831Z,80.32
2023-11-15T04:25:15.876Z,80.55
2023-11-15T04:27:43.890Z,81.12
2023-11-15T04:30:12.355Z,80.53
2023-11-15T04:32:40.831Z,80.72
2023-11-15T04:35:09.083Z,80.50
2023-11-15T04:37:37.083Z,80.59
2023-11-15T04:40:07.869Z,80.48
2023-11-15T04:42:36.055Z,80.70
2023-11-15T04:45:04.604Z,80.32
2023-11-15T04:47:33.291Z,80.73
2023-11-15T04:50:01.545Z,80.55
2023-11-15T04:52:29.768Z,81.13
2023-11-15T04:54:57.513Z,81.30
2023-11-15T04:57:27.033Z,80.42
2023-11-15T04:59:56.722Z,81.17
2023-11-15T05:02:25.130Z,81.18
2023-11-15T05:04:53.710Z,80.65
2023-11-15T05:07:23.977Z,81.29
2023-11-15T05:09:51.779Z,81.36
2023-11-15T05:12:19.881Z,81.55
2023-11-15T05:14:47.632Z,81.70
2023-11-15T05:17:16.140Z,81.81
2023-11-15T05:19:43.941Z,82.16
2023-11-15T05:22:12.138Z,82.52
2023-11-15T05:24:42.073Z,82.18
2023-11-15T05:27:11.102Z,82.77
2023-11-15T05:29:38.929Z,82.45
2023-11-15T05:32:07.559Z,82.86
2023-11-15T05:34:35.730Z,83.03
2023-11-15T05:37:03.713Z,83.04
2023-11-15T05:39:31.493Z,82.58
2023-11-15T05:41:59.787Z,82.89
2023-11-15T05:44:27.572Z,83.02
2023-11-15T05:46:55.609Z,82.53
2023-11-15T05:49:23.392Z,83.04
2023-11-15T05:51:51.612Z,82.92
2023-11-15T05:54:19.289Z,83.37
2023-11-15T05:56:50.589Z,83.41
2023-11-15T05:59:18.373Z,82.97
2023-11-15T06:01:46.550Z,83.59
2023-11-15T06:04:14.359Z,83.44
2023-11-15T06:06:42.351Z,84.04
2023-11-15T06:09:14.785Z,84.17
2023-11-15T06:11:43.611Z,84.28
2023-11-15T06:14:13.472Z,84.41
2023-11-15T06:16:41.763Z,84.28
2023-11-15T06:19:09.914Z,83.95
2023-11-15T06:21:42.778Z,84.29
2023-11-15T06:24:11.105Z,84.39
2023-11-15T06:26:39.706Z,84.94
2023-11-15T06:29:08.483Z,84.76
2023-11-15T06:31:39.832Z,84.79
2023-11-15T06:34:08.623Z,85.59
2023-11-15T06:36:36.691Z,84.82
2023-11-15T06:39:06.326Z,85.51
2023-11-15T06:41:39.826Z,85.58
2023-11-15T06:44:08.681Z,85.17
2023-11-15T06:46:40.390Z,85.77
2023-11-15T06:49:11.988Z,85.43
2023-11-15T06:51:47.618Z,85.67
2023-11-15T06:54:15.372Z,85.68
2023-11-15T06:56:49.941Z,85.77
2023-11-15T06:59:18.613Z,85.64
2023-11-15T07:01:49.463Z,85.35
2023-11-15T07:04:18.224Z,85.04
2023-11-15T07:06:49.661Z,85.28
2023-11-15T07:09:17.605Z,84.72
2023-11-15T07:11:47.968Z,85.15
2023-11-15T07:14:17.049Z,85.03
2023-11-15T07:16:57.366Z,84.68
2023-11-15T07:19:25.906Z,84.45
2023-11-15T07:21:54.550Z,84.70
2023-11-15T07:24:23.118Z,84.41
2023-11-15T07:26:51.416Z,84.13
2023-11-15T07:29:19.613Z,84.25
2023-11-15T07:31:54.839Z,84.44
2023-11-15T07:34:23.772Z,83.88
2023-11-15T07:36:54.936Z,84.01
2023-11-15T07:39:23.201Z,84.16
2023-11-15T07:41:52.024Z,84.23
2023-11-15T07:44:21.194Z,83.79
2023-11-15T07:46:53.506Z,83.79
2023-11-15T07:49:24.740Z,83.46
2023-11-15T07:51:53.069Z,83.06
2023-11-15T07:54:21.225Z,82.82
2023-11-15T07:56:49.363Z,82.37
2023-11-15T07:59:18.144Z,82.23
2023-11-15T08:01:48.106Z,82.32
2023-11-15T08:04:17.385Z,82.71
2023-11-15T08:06:45.755Z,82.43
2023-11-15T08:09:26.052Z,82.08
2023-11-15T08:11:56.606Z,81.69
2023-11-15T08:14:25.620Z,82.48
2023-11-15T08:16:54.423Z,82.48
2023-11-15T08:19:22.369Z,82.78
2023-11-15T08:21:50.536Z,81.89
2023-11-15T08:24:22.663Z,82.57
2023-11-15T08:26:54.374Z,82.38
2023-11-15T08:29:23.261Z,82.58
2023-11-15T08:31:51.654Z,82.70
2023-11-15T08:34:23.872Z,83.02
2023-11-15T08:36:53.009Z,83.22
2023-11-15T08:39:23.759Z,82.72
2023-11-15T08:41:52.322Z,82.91
2023-11-15T08:44:20.192Z,83.14
2023-11-15T08:46:49.551Z,82.66
2023-11-15T08:49:18.176Z,81.02
2023-11-15T08:51:48.549Z,80.88
2023-11-15T08:54:17.390Z,80.49
2023-11-15T08:56:46.836Z,80.19
2023-11-15T08:59:16.132Z,80.43
2023-11-15T09:01:45.837Z,79.64
2023-11-15T09:04:14.918Z,79.38
2023-11-15T09:06:49.057Z,79.20
2023-11-15T09:09:18.736Z,77.13
2023-11-15T09:11:48.549Z,74.77
2023-11-15T09:14:17.569Z,71.21
2023-11-15T09:16:46.173Z,71.70
2023-11-15T09:19:18.467Z,71.17
2023-11-15T09:21:50.130Z,71.18
2023-11-15T09:24:26.111Z,70.80
2023-11-15T09:26:54.217Z,71.16
2023-11-15T09:29:22.276Z,69.05
2023-11-15T09:31:51.440Z,67.84
2023-11-15T09:34:19.519Z,65.81
2023-11-15T09:36:49.265Z,62.21
2023-11-15T09:39:19.736Z,62.08
2023-11-15T09:41:55.272Z,60.49
2023-11-15T09:44:25.114Z,61.40
2023-11-15T09:46:55.059Z,61.86
2023-11-15T09:49:25.589Z,62.33
2023-11-15T09:51:54.183Z,62.34
2023-11-15T09:54:23.297Z,63.45
2023-11-15T09:56:51.630Z,62.69
2023-11-15T09:59:20.263Z,62.89
2023-11-15T10:01:50.694Z,63.80
2023-11-15T10:04:26.724Z,63.71
2023-11-15T10:07:05.672Z,64.31
2023-11-15T10:09:36.481Z,65.03
2023-11-15T10:12:07.436Z,65.42
2023-11-15T10:14:39.191Z,65.28
2023-11-15T10:17:08.422Z,65.73
2023-11-15T10:19:36.565Z,65.41
2023-11-15T10:22:06.291Z,65.07
2023-11-15T10:24:36.434Z,64.04
2023-11-15T10:27:16.147Z,64.68
2023-11-15T10:29:47.984Z,65.15
2023-11-15T10:32:22.014Z,64.34
2023-11-15T10:34:52.806Z,65.33
2023-11-15T10:37:20.924Z,65.95
2023-11-15T10:39:49.365Z,67.22
2023-11-15T10:42:19.318Z,68.09
2023-11-15T10:44:49.439Z,69.46
2023-11-15T10:47:24.054Z,69.88
2023-11-15T10:49:59.131Z,70.35
2023-11-15T10:52:30.611Z,71.03
2023-11-15T10:54:58.957Z,71.17
2023-11-15T10:57:28.962Z,71.77
2023-11-15T11:00:07.322Z,72.28
2023-11-15T11:02:39.746Z,73.41
2023-11-15T11:05:10.043Z,73.25
2023-11-15T11:07:50.485Z,73.63
2023-11-15T11:11:07.651Z,73.96
2023-11-15T11:13:35.941Z,73.43
2023-11-15T11:19:28.856Z,72.87
2023-11-15T11:22:04.462Z,72.36
2023-11-15T11:24:39.812Z,72.23
2023-11-15T11:27:13.288Z,71.89
2023-11-15T11:29:50.623Z,70.40
2023-11-15T11:32:28.134Z,70.75
2023-11-15T11:35:02.456Z,70.46
2023-11-15T11:37:46.370Z,71.38
2023-11-15T11:40:15.742Z,70.61
2023-11-15T11:42:45.105Z,70.26
2023-11-15T11:45:15.052Z,70.37
2023-11-15T11:47:47.605Z,70.25
2023-11-15T11:50:25.556Z,69.85
2023-11-15T11:52:57.864Z,69.94
2023-11-15T11:55:27.364Z,70.27
2023-11-15T11:57:55.201Z,69.80
2023-11-15T12:00:23.554Z,70.20
2023-11-15T12:03:00.954Z,70.80
2023-11-15T12:05:34.116Z,71.32
2023-11-15T12:08:04.092Z,71.16
2023-11-15T12:10:32.378Z,71.68
2023-11-15T12:13:04.229Z,71.72
2023-11-15T12:15:33.001Z,71.22
2023-11-15T12:18:01.458Z,71.08
2023-11-15T12:20:35.099Z,70.81
2023-11-15T12:23:09.389Z,69.95
2023-11-15T12:25:47.033Z,69.90
2023-11-15T12:28:16.107Z,69.96
2023-11-15T12:30:44.950Z,69.57
2023-11-15T12:33:13.980Z,70.42
2023-11-15T12:35:43.720Z,70.79
2023-11-15T12:38:14.391Z,70.99
2023-11-15T12:40:45.513Z,71.74
2023-11-15T12:43:20.902Z,72.92
2023-11-15T12:45:51.232Z,74.89
2023-11-15T12:48:19.427Z,77.05
2023-11-15T12:50:49.325Z,78.96
2023-11-15T12:53:18.957Z,79.96
2023-11-15T12:55:52.424Z,80.72
2023-11-15T12:58:22.738Z,81.81
2023-11-15T13:01:08.607Z,81.94
2023-11-15T13:03:38.039Z,83.19
2023-11-15T13:06:17.726Z,83.85
2023-11-15T13:08:52.914Z,84.29
2023-11-15T13:11:25.912Z,84.28
2023-11-15T13:13:54.662Z,85.16
2023-11-15T13:16:27.083Z,85.63
2023-11-15T13:18:55.195Z,86.09
2023-11-15T13:21:24.695Z,86.32
2023-11-15T13:23:56.937Z,86.46
2023-11-15T13:26:26.142Z,86.90
2023-11-15T13:28:54.415Z,86.85
2023-11-15T13:31:25.600Z,87.05
2023-11-15T13:33:57.741Z,87.04
2023-11-15T13:36:27.843Z,87.63
2023-11-15T13:38:55.698Z,87.75
2023-11-15T13:41:25.129Z,87.76
2023-11-15T13:43:53.852Z,87.65
2023-11-15T13:46:29.548Z,87.71
2023-11-15T13:48:59.764Z,87.71
2023-11-15T13:51:29.392Z,87.73
2023-11-15T13:53:58.154Z,86.89
2023-11-15T13:56:26.339Z,86.11
2023-11-15T13:58:54.291Z,86.48
2023-11-15T14:01:22.284Z,86.16
2023-11-15T14:03:50.158Z,86.21
2023-11-15T14:06:18.246Z,85.26
2023-11-15T14:08:52.258Z,85.96
2023-11-15T14:11:30.457Z,86.11
2023-11-15T14:13:58.714Z,85.83
2023-11-15T14:16:27.136Z,86.16
2023-11-15T14:18:56.041Z,85.67
2023-11-15T14:21:25.286Z,86.08
2023-11-15T14:23:53.394Z,86.01
2023-11-15T14:26:21.502Z,85.54
2023-11-15T14:28:50.652Z,85.01
2023-11-15T14:31:19.197Z,85.53
2023-11-15T14:33:47.145Z,85.90
2023-11-15T14:36:17.588Z,85.73
2023-11-15T14:38:48.272Z,85.94
2023-11-15T14:41:17.687Z,85.95
2023-11-15T14:43:46.696Z,85.68
2023-11-15T14:46:18.338Z,85.90
2023-11-15T14:48:46.502Z,85.49
2023-11-15T14:51:15.747Z,84.38
2023-11-15T14:53:54.229Z,84.51
2023-11-15T14:56:23.730Z,83.88
2023-11-15T14:58:54.770Z,84.18
2023-11-15T15:01:25.578Z,83.41
2023-11-15T15:03:53.920Z,83.17
2023-11-15T15:06:22.305Z,83.60
2023-11-15T15:08:50.156Z,82.46
2023-11-15T15:11:18.289Z,82.22
2023-11-15T15:13:46.133Z,82.70
2023-11-15T15:16:16.287Z,82.74
2023-11-15T15:18:44.349Z,82.76
2023-11-15T15:21:12.675Z,82.20
2023-11-15T15:23:40.475Z,82.76
2023-11-15T15:26:08.795Z,83.32
2023-11-15T15:28:36.476Z,82.75
2023-11-15T15:31:05.798Z,81.82
2023-11-15T15:33:34.069Z,81.86
2023-11-15T15:36:04.020Z,82.91
2023-11-15T15:38:31.825Z,82.82
2023-11-15T15:41:01.950Z,83.00
2023-11-15T15:43:30.289Z,83.02
2023-11-15T15:45:58.605Z,82.88
2023-11-15T15:48:26.494Z,82.52
2023-11-15T15:50:54.791Z,82.17
2023-11-15T15:53:22.634Z,82.49
2023-11-15T15:55:50.754Z,82.55
2023-11-15T15:58:18.515Z,82.44
2023-11-15T16:00:47.169Z,82.02
2023-11-15T16:03:14.976Z,81.75
2023-11-15T16:05:43.453Z,82.03
2023-11-15T16:08:11.940Z,81.49
2023-11-15T16:10:42.116Z,81.39
2023-11-15T16:13:10.903Z,82.06
2023-11-15T16:15:39.373Z,81.82
2023-11-15T16:18:07.374Z,81.44
2023-11-15T16:20:35.518Z,80.92
2023-11-15T16:23:03.691Z,80.19
2023-11-15T16:25:33.445Z,80.34
2023-11-15T16:28:01.311Z,80.86
2023-11-15T16:30:32.677Z,80.40
2023-11-15T16:33:01.146Z,80.18
2023-11-15T16:35:31.029Z,79.67
2023-11-15T16:37:58.902Z,79.39
2023-11-15T16:40:26.955Z,79.82
2023-11-15T16:42:54.946Z,79.12
2023-11-15T16:45:25.590Z,79.20
2023-11-15T16:47:53.587Z,79.35
2023-11-15T16:50:21.734Z,78.95
2023-11-15T16:52:51.169Z,79.90
2023-11-15T16:55:19.366Z,79.85
2023-11-15T16:57:47.163Z,79.88
2023-11-15T17:00:17.870Z,80.08
2023-11-15T17:02:45.955Z,80.20
2023-11-15T17:05:14.191Z,79.98
2023-11-15T17:07:42.281Z,80.67
2023-11-15T17:10:10.536Z,79.66
2023-11-15T17:12:38.549Z,80.09
2023-11-15T17:15:07.683Z,79.31
2023-11-15T17:17:35.575Z,78.79
2023-11-15T17:20:06.332Z,79.01
2023-11-15T17:22:36.770Z,79.81
2023-11-15T17:25:18.778Z,79.46
2023-11-15T17:27:47.930Z,79.90
2023-11-15T17:30:16.204Z,79.62
2023-11-15T17:32:44.035Z,78.89
2023-11-15T17:35:12.095Z,78.95
2023-11-15T17:37:40.880Z,78.90
2023-11-15T17:40:10.412Z,79.02
2023-11-15T17:42:38.379Z,79.48
2023-11-15T17:45:08.027Z,78.81
2023-11-15T17:47:35.799Z,79.46
2023-11-15T17:50:05.534Z,79.66
2023-11-15T17:52:33.398Z,79.21
2023-11-15T17:55:01.439Z,78.79
2023-11-15T17:57:34.337Z,79.63
2023-11-15T18:00:06.420Z,78.86
2023-11-15T18:02:34.442Z,79.12
2023-11-15T18:05:05.379Z,79.23
2023-11-15T18:07:33.202Z,78.33
2023-11-15T18:10:02.783Z,79.04
2023-11-15T18:12:30.742Z,79.66
2023-11-15T18:14:58.789Z,78.52
2023-11-15T18:17:26.621Z,78.88
2023-11-15T18:19:54.575Z,79.20
2023-11-15T18:22:22.451Z,78.39
2023-11-15T18:24:50.438Z,79.01
2023-11-15T18:27:18.210Z,78.88
2023-11-15T18:29:46.584Z,78.72
2023-11-15T18:32:14.886Z,79.07
2023-11-15T18:34:43.533Z,78.75
2023-11-15T18:37:11.446Z,78.68
2023-11-15T18:39:39.639Z,78.70
2023-11-15T18:42:11.787Z,78.97
2023-11-15T18:44:42.971Z,78.69
2023-11-15T18:47:12.048Z,78.32
2023-11-15T18:49:43.277Z,79.20
2023-11-15T18:52:11.069Z,79.55
2023-11-15T18:54:40.017Z,79.25
2023-11-15T18:57:08.387Z,79.25
2023-11-15T18:59:37.268Z,79.83
2023-11-15T19:02:05.688Z,79.85
2023-11-15T19:04:34.407Z,79.73
2023-11-15T19:07:04.426Z,79.29
2023-11-15T19:09:37.681Z,79.57
2023-11-15T19:12:06.686Z,79.42
2023-11-15T19:14:35.450Z,80.33
2023-11-15T19:17:03.978Z,79.60
2023-11-15T19:19:32.149Z,79.66
2023-11-15T19:21:59.904Z,79.39
2023-11-15T19:24:27.990Z,79.66
2023-11-15T19:26:55.823Z,79.69
2023-11-15T19:29:23.893Z,79.94
2023-11-15T19:31:51.663Z,79.49
2023-11-15T19:34:19.758Z,79.60
2023-11-15T19:36:48.428Z,80.29
2023-11-15T19:39:16.522Z,80.17
2023-11-15T19:41:44.540Z,80.09
2023-11-15T19:44:14.199Z,80.37
2023-11-15T19:46:42.063Z,80.15
2023-11-15T19:49:11.094Z,80.69
2023-11-15T19:51:39.015Z,80.70
2023-11-15T19:54:08.920Z,80.26
2023-11-15T19:56:37.083Z,80.24
2023-11-15T19:59:05.351Z,80.34
2023-11-15T20:01:33.143Z,80.38
2023-11-15T20:04:04.921Z,80.10
2023-11-15T20:06:33.388Z,80.38
2023-11-15T20:09:01.495Z,80.22
2023-11-15T20:11:29.792Z,80.36
2023-11-15T20:13:57.847Z,80.23
2023-11-15T20:16:26.833Z,80.49
2023-11-15T20:18:55.645Z,80.45
2023-11-15T20:21:24.411Z,80.21
2023-11-15T20:23:54.105Z,80.21
2023-11-15T20:26:22.114Z,80.04
2023-11-15T20:28:50.265Z,79.80
2023-11-15T20:31:18.057Z,79.70
2023-11-15T20:33:46.126Z,79.88
2023-11-15T20:36:14.357Z,80.09
2023-11-15T20:38:42.532Z,80.27
2023-11-15T20:41:11.644Z,80.08
2023-11-15T20:43:39.718Z,80.15
2023-11-15T20:46:17.399Z,79.92
2023-11-15T20:48:48.262Z,79.69
2023-11-15T20:51:16.370Z,79.66
2023-11-15T20:53:45.424Z,79.19
2023-11-15T20:56:13.448Z,78.87
2023-11-15T20:58:41.703Z,78.83
2023-11-15T21:01:10.243Z,78.66
2023-11-15T21:03:38.912Z,78.82
2023-11-15T21:06:07.543Z,78.45
2023-11-15T21:08:38.687Z,78.32
2023-11-15T21:11:06.697Z,78.28
2023-11-15T21:13:36.043Z,78.31
2023-11-15T21:16:07.641Z,78.86
2023-11-15T21:18:35.929Z,78.90
2023-11-15T21:21:04.677Z,78.61
2023-11-15T21:23:33.654Z,78.46
2023-11-15T21:26:01.489Z,78.26
2023-11-15T21:28:29.534Z,78.11
2023-11-15T21:30:57.288Z,78.71
2023-11-15T21:33:26.222Z,78.29
2023-11-15T21:35:54.568Z,77.90
2023-11-15T21:38:26.167Z,77.96
2023-11-15T21:40:54.230Z,78.86
2023-11-15T21:43:23.944Z,78.05
2023-11-15T21:45:51.743Z,78.11
2023-11-15T21:48:22.192Z,78.37
2023-11-15T21:50:50.368Z,78.55
2023-11-15T21:53:18.342Z,78.62
2023-11-15T21:55:46.071Z,78.85
2023-11-15T21:58:14.077Z,78.72
2023-11-15T22:00:41.980Z,79.48
2023-11-15T22:03:10.635Z,79.12
2023-11-15T22:05:40.370Z,79.27
2023-11-15T22:08:08.469Z,79.61
2023-11-15T22:10:36.168Z,79.54
2023-11-15T22:13:04.734Z,79.47
2023-11-15T22:15:32.470Z,79.46
2023-11-15T22:18:00.961Z,79.62
2023-11-15T22:20:29.033Z,79.77
2023-11-15T22:22:57.850Z,79.62
2023-11-15T22:25:25.709Z,79.74
2023-11-15T22:27:53.761Z,79.61
2023-11-15T22:30:22.214Z,79.70
2023-11-15T22:32:50.347Z,79.00
2023-11-15T22:35:18.302Z,79.23
2023-11-15T22:37:46.326Z,79.20
2023-11-15T22:40:14.277Z,79.14
2023-11-15T22:42:47.104Z,79.43
2023-11-15T22:45:14.848Z,78.85
2023-11-15T22:47:42.957Z,79.18
2023-11-15T22:50:11.053Z,78.79
2023-11-15T22:52:39.102Z,79.22
2023-11-15T22:55:08.698Z,79.00
2023-11-15T22:57:36.714Z,78.48
2023-11-15T23:00:05.930Z,78.79
2023-11-15T23:02:34.814Z,78.23
2023-11-15T23:05:03.843Z,77.44
2023-11-15T23:07:32.073Z,77.08
2023-11-15T23:09:59.768Z,76.66
2023-11-15T23:12:27.756Z,76.35
2023-11-15T23:14:55.468Z,75.38
2023-11-15T23:17:23.348Z,75.20
2023-11-15T23:19:51.927Z,74.98
2023-11-15T23:22:19.893Z,74.51
2023-11-15T23:24:47.653Z,74.76
2023-11-15T23:27:17.078Z,74.71
2023-11-15T23:29:44.886Z,74.65
2023-11-15T23:32:12.799Z,73.92
2023-11-15T23:34:40.555Z,73.82
2023-11-15T23:37:08.561Z,74.01
2023-11-15T23:39:36.286Z,74.40
2023-11-15T23:42:05.422Z,74.66
2023-11-15T23:44:36.095Z,74.94
2023-11-15T23:47:07.143Z,75.66
2023-11-15T23:49:37.655Z,76.06
2023-11-15T23:52:06.469Z,76.49
2023-11-15T23:54:34.266Z,76.65
2023-11-15T23:57:04.264Z,77.21
2023-11-15T23:59:32.452Z,78.06
